Time;durP1;ratioP1;P1;durP2;ratioP2;P2;SDS_P1;SDS_P2;PMS_P1;PMS_P2;Temp;Humidity;BMP_temperature;BMP_pressure;BME280_temperature;BME280_humidity;BME280_pressure;Samples;Min_cycle;Max_cycle;Signal;HPM_P1;HPM_P2
2023/04/28 00:01:10;;;;;;;8.13;3.13;;;10.60;99.90;;;;;;4896766;29;20471;-79
2023/04/28 00:03:37;;;;;;;8.48;3.33;;;10.60;99.90;;;;;;4870866;29;20115;-80
2023/04/28 00:06:03;;;;;;;5.97;3.38;;;10.50;99.90;;;;;;4883698;29;20140;-80
2023/04/28 00:08:29;;;;;;;7.40;4.57;;;10.40;99.90;;;;;;4869978;29;20036;-80
2023/04/28 00:10:55;;;;;;;8.60;3.85;;;10.30;99.90;;;;;;4872757;29;20067;-80
2023/04/28 00:13:22;;;;;;;6.47;4.00;;;10.30;99.90;;;;;;4873512;29;20123;-80
2023/04/28 00:15:51;;;;;;;8.70;4.75;;;10.20;99.90;;;;;;4877700;29;20036;-79
2023/04/28 00:18:18;;;;;;;6.18;3.70;;;10.20;99.90;;;;;;4881276;29;20072;-79
2023/04/28 00:20:45;;;;;;;9.60;4.47;;;10.20;99.90;;;;;;4896899;29;20047;-79
2023/04/28 00:23:11;;;;;;;6.70;5.28;;;10.00;1.00;;;;;;4881184;29;20037;-79
2023/04/28 00:25:37;;;;;;;5.97;4.47;;;10.00;1.00;;;;;;4880763;29;20052;-79
2023/04/28 00:28:03;;;;;;;12.88;5.53;;;9.90;1.00;;;;;;4900531;29;20040;-79
2023/04/28 00:30:30;;;;;;;9.57;5.60;;;9.90;1.00;;;;;;4897951;29;20047;-79
2023/04/28 00:32:56;;;;;;;7.45;5.20;;;10.00;1.00;;;;;;4898602;29;20055;-80
2023/04/28 00:35:22;;;;;;;9.25;4.95;;;10.00;1.00;;;;;;4898796;29;20052;-80
2023/04/28 00:37:48;;;;;;;7.25;5.68;;;9.90;1.00;;;;;;4899593;29;20047;-80
2023/04/28 00:40:15;;;;;;;7.47;5.38;;;9.90;1.00;;;;;;4897217;29;20036;-80
2023/04/28 00:42:41;;;;;;;7.40;6.03;;;9.90;1.00;;;;;;4881644;29;20051;-80
2023/04/28 00:45:07;;;;;;;9.85;6.47;;;9.80;1.00;;;;;;4889809;29;20059;-79
2023/04/28 00:47:35;;;;;;;10.30;5.30;;;9.80;1.00;;;;;;4898267;29;20036;-80
2023/04/28 00:50:02;;;;;;;9.63;6.70;;;9.60;1.00;;;;;;4892380;29;20040;-80
2023/04/28 00:52:28;;;;;;;10.88;6.97;;;9.70;1.00;;;;;;4885356;29;20047;-80
2023/04/28 00:54:56;;;;;;;9.68;6.05;;;9.80;1.00;;;;;;4892538;29;20051;-79
2023/04/28 00:57:22;;;;;;;9.77;5.75;;;9.70;1.00;;;;;;4899405;29;20056;-87
2023/04/28 00:59:49;;;;;;;10.43;6.25;;;9.80;1.00;;;;;;4883538;29;20040;-80
2023/04/28 01:02:17;;;;;;;13.35;5.93;;;9.80;1.00;;;;;;4897303;29;20040;-79
2023/04/28 01:04:44;;;;;;;8.32;5.78;;;9.80;1.00;;;;;;4878807;29;20048;-79
2023/04/28 01:07:11;;;;;;;10.50;5.63;;;9.90;1.00;;;;;;4866384;29;20048;-79
2023/04/28 01:09:38;;;;;;;7.47;5.35;;;9.90;1.00;;;;;;4898108;29;20390;-79
2023/04/28 01:12:05;;;;;;;8.50;5.22;;;9.90;1.00;;;;;;4879852;29;20044;-80
2023/04/28 01:14:41;;;;;;;10.50;5.80;;;9.80;1.00;;;;;;4878242;29;20045;-79
2023/04/28 01:17:08;;;;;;;8.88;6.38;;;9.70;1.00;;;;;;4890011;29;20049;-79
2023/04/28 01:19:34;;;;;;;11.77;6.00;;;9.70;1.00;;;;;;4879289;29;20041;-79
2023/04/28 01:22:01;;;;;;;9.05;6.22;;;9.70;1.00;;;;;;4889545;29;20041;-79
2023/04/28 01:24:27;;;;;;;9.32;6.00;;;9.80;1.00;;;;;;4889904;29;20501;-80
2023/04/28 01:26:56;;;;;;;10.65;6.50;;;9.90;1.00;;;;;;4881435;29;20040;-79
2023/04/28 01:29:22;;;;;;;9.93;5.97;;;10.00;1.00;;;;;;4881370;29;20048;-79
2023/04/28 01:31:48;;;;;;;8.15;5.68;;;10.00;1.00;;;;;;4891889;29;20044;-80
2023/04/28 01:34:16;;;;;;;11.15;7.40;;;10.10;1.00;;;;;;4880195;29;20049;-80
2023/04/28 01:36:42;;;;;;;9.20;6.38;;;10.10;1.00;;;;;;4897326;29;20394;-79
2023/04/28 01:39:10;;;;;;;9.30;6.65;;;10.10;1.00;;;;;;4882050;29;20421;-79
2023/04/28 01:41:36;;;;;;;14.93;6.90;;;10.10;1.00;;;;;;4879482;29;20402;-79
2023/04/28 01:44:05;;;;;;;10.88;6.53;;;10.10;1.00;;;;;;4871613;29;20390;-79
2023/04/28 01:46:31;;;;;;;10.25;6.82;;;10.20;1.00;;;;;;4895349;29;20049;-79
2023/04/28 01:48:57;;;;;;;9.10;6.70;;;10.20;1.00;;;;;;4896437;29;20071;-79
2023/04/28 01:51:24;;;;;;;8.30;6.28;;;10.20;1.00;;;;;;4895641;29;20036;-86
2023/04/28 01:54:09;;;;;;;11.68;7.28;;;10.10;1.00;;;;;;4881172;29;20048;-79
2023/04/28 01:56:38;;;;;;;10.38;6.45;;;10.10;1.00;;;;;;4893362;29;20044;-79
2023/04/28 01:59:04;;;;;;;14.32;7.07;;;10.10;1.00;;;;;;4864747;29;20048;-79
2023/04/28 02:01:32;;;;;;;14.52;9.43;;;10.00;1.00;;;;;;4885823;29;20394;-79
2023/04/28 02:03:59;;;;;;;11.48;7.43;;;10.00;1.00;;;;;;4893060;29;20047;-79
2023/04/28 02:06:26;;;;;;;12.90;7.88;;;10.00;1.00;;;;;;4863810;29;20049;-80
2023/04/28 02:08:52;;;;;;;12.45;7.68;;;10.10;1.00;;;;;;4897175;29;20040;-79
2023/04/28 02:11:19;;;;;;;12.07;8.10;;;10.10;1.00;;;;;;4878683;29;20052;-78
2023/04/28 02:13:45;;;;;;;11.52;8.25;;;10.10;1.00;;;;;;4879321;29;20071;-78
2023/04/28 02:16:12;;;;;;;11.77;8.63;;;10.10;1.00;;;;;;4881732;29;20040;-78
2023/04/28 02:18:38;;;;;;;14.07;8.55;;;10.20;1.00;;;;;;4895470;29;20040;-79
2023/04/28 02:21:10;;;;;;;13.88;8.32;;;10.20;1.00;;;;;;4895889;29;20394;-82
2023/04/28 02:23:36;;;;;;;13.55;8.82;;;10.30;1.00;;;;;;4880453;29;20048;-78
2023/04/28 02:26:05;;;;;;;13.30;9.40;;;10.40;1.00;;;;;;4895096;29;20052;-80
2023/04/28 02:28:31;;;;;;;11.95;8.48;;;10.40;1.00;;;;;;4880992;29;20362;-79
2023/04/28 02:31:08;;;;;;;12.50;9.20;;;10.50;1.00;;;;;;4896422;29;20478;-79
2023/04/28 02:33:35;;;;;;;15.57;7.90;;;10.50;1.00;;;;;;4872285;29;20045;-78
2023/04/28 02:36:03;;;;;;;9.75;7.53;;;10.50;1.00;;;;;;4897846;29;20048;-79
2023/04/28 02:38:30;;;;;;;10.05;8.80;;;10.50;1.00;;;;;;4895576;29;20043;-79
2023/04/28 02:40:57;;;;;;;9.85;7.50;;;10.50;1.00;;;;;;4875588;29;20044;-79
2023/04/28 02:43:25;;;;;;;9.00;6.97;;;10.40;1.00;;;;;;4879863;29;20037;-81
2023/04/28 02:45:51;;;;;;;10.55;7.95;;;10.40;1.00;;;;;;4896290;29;20048;-79
2023/04/28 02:48:18;;;;;;;13.18;7.70;;;10.50;1.00;;;;;;4862038;29;20052;-78
2023/04/28 02:50:47;;;;;;;13.25;8.88;;;10.40;1.00;;;;;;4894028;29;20037;-79
2023/04/28 02:53:13;;;;;;;9.98;7.82;;;10.40;1.00;;;;;;4862749;29;20383;-79
2023/04/28 02:55:40;;;;;;;14.73;8.70;;;10.50;1.00;;;;;;4878461;29;20045;-79
2023/04/28 02:58:06;;;;;;;11.23;8.57;;;10.50;1.00;;;;;;4864172;29;20059;-80
2023/04/28 03:00:32;;;;;;;15.13;9.23;;;10.50;1.00;;;;;;4874689;29;20049;-79
2023/04/28 03:02:58;;;;;;;11.35;8.77;;;10.50;1.00;;;;;;4889965;29;20052;-79
2023/04/28 03:05:25;;;;;;;12.13;8.70;;;10.50;1.00;;;;;;4870974;29;20056;-84
2023/04/28 03:07:51;;;;;;;14.18;9.23;;;10.40;1.00;;;;;;4867951;29;20486;-79
2023/04/28 03:10:18;;;;;;;12.65;8.65;;;10.30;1.00;;;;;;4867850;29;20056;-81
2023/04/28 03:12:44;;;;;;;11.70;8.63;;;10.30;43.90;;;;;;4880822;29;20045;-80
2023/04/28 03:15:11;;;;;;;11.30;8.50;;;10.20;93.70;;;;;;4875942;29;20055;-80
2023/04/28 03:17:37;;;;;;;13.60;9.18;;;10.10;99.90;;;;;;4879450;29;20413;-80
2023/04/28 03:20:05;;;;;;;12.77;10.00;;;10.00;99.90;;;;;;4878748;29;20439;-80
2023/04/28 03:22:32;;;;;;;14.45;10.07;;;9.90;99.90;;;;;;4862810;29;20048;-80
2023/04/28 03:24:58;;;;;;;16.98;10.90;;;9.80;99.90;;;;;;4876749;29;20499;-80
2023/04/28 03:27:26;;;;;;;17.00;11.90;;;9.80;99.90;;;;;;4877296;29;20053;-81
2023/04/28 03:29:54;;;;;;;16.23;12.00;;;9.80;99.90;;;;;;4889122;29;20375;-81
2023/04/28 03:32:20;;;;;;;18.10;12.50;;;9.80;99.90;;;;;;4896832;29;20037;-80
2023/04/28 03:34:46;;;;;;;18.92;13.00;;;9.80;99.90;;;;;;4879464;29;20047;-80
2023/04/28 03:37:13;;;;;;;26.80;13.77;;;9.80;99.90;;;;;;4854846;29;20040;-81
2023/04/28 03:39:40;;;;;;;16.05;11.85;;;9.80;99.90;;;;;;4888542;29;20044;-80
2023/04/28 03:42:06;;;;;;;19.50;12.15;;;9.90;99.90;;;;;;4876820;29;20467;-81
2023/04/28 03:44:35;;;;;;;18.35;11.95;;;9.90;99.90;;;;;;4886528;29;20040;-78
2023/04/28 03:47:02;;;;;;;15.05;11.77;;;9.90;99.90;;;;;;4881021;29;20402;-80
2023/04/28 03:49:29;;;;;;;20.02;13.88;;;9.80;99.90;;;;;;4886649;29;20056;-80
2023/04/28 03:51:56;;;;;;;16.10;12.07;;;9.80;99.90;;;;;;4872825;29;20044;-81
2023/04/28 03:54:22;;;;;;;18.60;11.55;;;9.80;99.90;;;;;;4890025;29;20045;-81
2023/04/28 03:56:48;;;;;;;19.35;12.27;;;9.80;99.90;;;;;;4885229;29;20063;-80
2023/04/28 03:59:15;;;;;;;21.60;11.80;;;9.70;99.90;;;;;;4879742;29;20041;-80
2023/04/28 04:01:42;;;;;;;18.23;11.27;;;9.60;99.90;;;;;;4874625;29;20390;-81
2023/04/28 04:04:08;;;;;;;20.58;13.05;;;9.70;99.90;;;;;;4896201;29;20037;-80
2023/04/28 04:06:35;;;;;;;17.00;13.57;;;9.80;99.90;;;;;;4876245;29;20060;-80
2023/04/28 04:09:02;;;;;;;17.50;12.38;;;9.80;99.90;;;;;;4872536;29;20041;-78
2023/04/28 04:11:28;;;;;;;17.02;11.95;;;9.90;99.90;;;;;;4878656;29;20370;-80
2023/04/28 04:13:55;;;;;;;16.63;12.45;;;9.90;99.90;;;;;;4862761;29;20406;-80
2023/04/28 04:16:24;;;;;;;16.23;12.55;;;10.00;99.90;;;;;;4877811;29;20044;-81
2023/04/28 04:18:52;;;;;;;18.17;12.32;;;10.00;99.90;;;;;;4862342;29;20049;-80
2023/04/28 04:21:23;;;;;;;15.50;11.27;;;10.00;99.90;;;;;;4878603;29;20402;-83
2023/04/28 04:23:51;;;;;;;;;;;10.00;99.90;;;;;;4879111;29;20041;-81
2023/04/28 04:26:17;;;;;;;16.85;12.25;;;10.00;99.90;;;;;;4877297;29;19931;-81
2023/04/28 04:28:43;;;;;;;13.15;11.45;;;10.00;99.90;;;;;;4872373;29;20045;-81
2023/04/28 04:31:10;;;;;;;16.58;12.85;;;10.00;99.90;;;;;;4889317;29;20362;-83
2023/04/28 04:33:36;;;;;;;17.13;11.70;;;10.00;99.90;;;;;;4879959;29;20048;-81
2023/04/28 04:36:04;;;;;;;24.48;15.10;;;10.00;97.60;;;;;;4871155;29;20408;-81
2023/04/28 04:38:31;;;;;;;20.05;12.38;;;10.10;76.70;;;;;;4859960;29;20045;-81
2023/04/28 04:41:04;;;;;;;18.02;14.80;;;10.10;67.70;;;;;;4877992;29;20056;-81
2023/04/28 04:43:30;;;;;;;17.17;11.80;;;10.20;76.00;;;;;;4877893;29;20053;-88
2023/04/28 04:45:56;;;;;;;19.40;12.02;;;10.20;83.50;;;;;;4892757;29;20053;-81
2023/04/28 04:48:22;;;;;;;19.60;12.82;;;10.20;91.90;;;;;;4891690;29;20039;-80
2023/04/28 04:50:49;;;;;;;20.02;13.18;;;10.30;95.20;;;;;;4879599;29;20045;-81
2023/04/28 04:53:15;;;;;;;18.70;12.63;;;10.40;85.40;;;;;;4896055;29;20040;-81
2023/04/28 04:55:41;;;;;;;15.95;11.70;;;10.40;73.00;;;;;;4876844;29;20055;-80
2023/04/28 04:58:08;;;;;;;20.20;11.70;;;10.40;59.70;;;;;;4875950;29;20052;-81
2023/04/28 05:00:57;;;;;;;13.57;10.93;;;10.50;40.70;;;;;;4860576;29;20431;-81
2023/04/28 05:03:23;;;;;;;15.13;9.80;;;10.50;28.90;;;;;;4879186;29;20045;-81
2023/04/28 05:05:50;;;;;;;15.65;10.45;;;10.50;24.20;;;;;;4881888;29;20486;-81
2023/04/28 05:08:39;;;;;;;14.98;9.57;;;10.60;23.00;;;;;;4887461;29;20041;-81
2023/04/28 05:11:06;;;;;;;18.13;8.98;;;10.60;8.30;;;;;;4880769;29;20056;-82
2023/04/28 05:13:32;;;;;;;10.50;7.97;;;10.70;1.00;;;;;;4868655;29;20044;-86
2023/04/28 05:16:01;;;;;;;13.98;8.45;;;10.80;1.00;;;;;;4886980;29;20040;-83
2023/04/28 05:18:50;;;;;;;10.48;8.02;;;10.80;1.00;;;;;;4891897;29;20063;-82
2023/04/28 05:21:16;;;;;;;10.60;7.15;;;10.90;1.00;;;;;;4875365;29;20398;-80
2023/04/28 05:23:42;;;;;;;10.75;7.35;;;10.90;1.00;;;;;;4875230;29;20041;-83
2023/04/28 05:26:08;;;;;;;13.65;7.50;;;10.80;1.00;;;;;;4890061;29;20068;-83
2023/04/28 05:28:35;;;;;;;12.65;8.27;;;10.70;1.00;;;;;;4876890;29;20049;-82
2023/04/28 05:31:01;;;;;;;12.00;7.65;;;10.70;1.00;;;;;;4893803;29;20045;-81
2023/04/28 05:33:29;;;;;;;11.27;8.15;;;10.70;1.00;;;;;;4882828;29;20052;-82
2023/04/28 05:35:55;;;;;;;11.98;7.60;;;10.60;1.00;;;;;;4891367;29;20049;-82
2023/04/28 05:38:22;;;;;;;12.98;9.57;;;10.70;3.40;;;;;;4900787;29;20055;-82
2023/04/28 05:40:48;;;;;;;13.57;8.48;;;10.60;7.50;;;;;;4897425;29;20043;-84
2023/04/28 05:43:14;;;;;;;10.65;7.50;;;10.60;16.60;;;;;;4905086;29;20053;-83
2023/04/28 05:45:42;;;;;;;14.93;8.68;;;10.60;26.40;;;;;;4915116;29;20055;-87
2023/04/28 05:48:08;;;;;;;15.40;9.45;;;10.60;45.90;;;;;;4901951;29;20041;-84
2023/04/28 05:50:34;;;;;;;12.73;8.80;;;10.60;69.50;;;;;;4901577;29;20047;-84
2023/04/28 05:53:01;;;;;;;17.23;11.90;;;10.60;92.10;;;;;;4898455;29;20041;-81
2023/04/28 05:55:27;;;;;;;15.40;9.98;;;10.50;99.90;;;;;;4885894;29;20060;-82
2023/04/28 05:57:53;;;;;;;14.93;10.07;;;10.60;99.90;;;;;;4882832;29;20053;-82
2023/04/28 06:00:21;;;;;;;13.70;10.50;;;10.60;99.90;;;;;;4903062;29;20029;-83
2023/04/28 06:02:49;;;;;;;14.57;10.60;;;10.50;99.90;;;;;;4887546;29;20037;-83
2023/04/28 06:05:15;;;;;;;16.55;10.85;;;10.60;99.90;;;;;;4901004;29;20043;-80
2023/04/28 06:07:42;;;;;;;18.13;11.25;;;10.60;99.90;;;;;;4915239;29;20033;-82
2023/04/28 06:10:09;;;;;;;17.48;11.80;;;10.60;99.90;;;;;;4908427;29;20044;-80
2023/04/28 06:12:36;;;;;;;19.20;13.82;;;10.60;99.90;;;;;;4895654;29;20056;-82
2023/04/28 06:15:03;;;;;;;26.63;13.43;;;10.70;99.90;;;;;;4912740;29;20040;-81
2023/04/28 06:17:31;;;;;;;19.63;13.70;;;10.60;99.90;;;;;;4885587;29;20045;-79
2023/04/28 06:19:58;;;;;;;23.52;12.57;;;10.70;99.90;;;;;;4864656;29;20052;-81
2023/04/28 06:22:25;;;;;;;19.58;13.63;;;10.60;99.90;;;;;;4882713;29;20479;-79
2023/04/28 06:24:51;;;;;;;21.75;13.75;;;10.60;99.90;;;;;;4898566;29;20493;-78
2023/04/28 06:27:22;;;;;;;17.40;13.77;;;10.60;99.90;;;;;;4890140;29;20049;-83
2023/04/28 06:29:49;;;;;;;21.58;14.90;;;10.60;99.90;;;;;;4892130;29;20032;-80
2023/04/28 06:32:15;;;;;;;25.00;14.35;;;10.60;99.90;;;;;;4874735;29;20371;-79
2023/04/28 06:34:41;;;;;;;21.63;14.15;;;10.60;99.90;;;;;;4895420;29;20032;-78
2023/04/28 06:37:07;;;;;;;20.75;13.80;;;10.60;99.90;;;;;;4895170;29;20048;-79
2023/04/28 06:39:34;;;;;;;22.17;15.27;;;10.70;99.90;;;;;;4882388;29;20048;-80
2023/04/28 06:42:01;;;;;;;20.50;13.73;;;10.70;99.90;;;;;;4890914;29;20051;-80
2023/04/28 06:44:28;;;;;;;23.77;15.23;;;10.70;99.90;;;;;;4863720;29;20380;-79
2023/04/28 06:46:55;;;;;;;19.90;14.80;;;10.70;99.90;;;;;;4877502;29;20057;-79
2023/04/28 06:49:21;;;;;;;21.50;15.45;;;10.80;99.90;;;;;;4897196;29;20044;-79
2023/04/28 06:51:47;;;;;;;24.13;14.65;;;10.80;99.90;;;;;;4894662;29;20041;-80
2023/04/28 06:54:15;;;;;;;23.33;15.68;;;10.90;99.90;;;;;;4896421;29;20114;-80
2023/04/28 06:56:43;;;;;;;26.42;14.75;;;10.90;99.90;;;;;;4878556;29;20048;-80
2023/04/28 06:59:09;;;;;;;24.55;15.85;;;11.00;99.90;;;;;;4862520;29;20041;-81
2023/04/28 07:01:36;;;;;;;25.08;16.33;;;11.00;99.90;;;;;;4861265;29;20045;-81
2023/04/28 07:04:02;;;;;;;25.15;17.17;;;11.00;99.90;;;;;;4894280;29;20036;-80
2023/04/28 07:06:30;;;;;;;30.75;17.77;;;11.00;99.90;;;;;;4895531;29;20049;-81
2023/04/28 07:08:56;;;;;;;26.65;17.05;;;11.10;99.90;;;;;;4880234;29;20056;-81
2023/04/28 07:11:22;;;;;;;24.50;16.15;;;11.10;99.90;;;;;;4886937;29;20475;-82
2023/04/28 07:13:50;;;;;;;24.38;16.33;;;11.10;99.90;;;;;;4898222;29;20083;-80
2023/04/28 07:16:17;;;;;;;23.25;15.57;;;11.10;99.90;;;;;;4876522;29;20041;-80
2023/04/28 07:18:44;;;;;;;23.02;15.60;;;11.20;99.90;;;;;;4866596;29;20060;-81
2023/04/28 07:21:11;;;;;;;25.38;15.70;;;11.20;99.90;;;;;;4893718;29;20040;-81
2023/04/28 07:23:37;;;;;;;21.50;15.70;;;11.20;99.90;;;;;;4896520;29;20041;-82
2023/04/28 07:26:03;;;;;;;24.65;17.80;;;11.30;99.90;;;;;;4894550;29;20505;-80
2023/04/28 07:28:30;;;;;;;22.90;15.75;;;11.40;99.90;;;;;;4880416;29;20031;-80
2023/04/28 07:30:56;;;;;;;21.40;16.48;;;11.40;99.90;;;;;;4887952;29;20470;-81
2023/04/28 07:33:23;;;;;;;20.50;14.80;;;11.50;99.90;;;;;;4888713;29;20033;-80
2023/04/28 07:35:51;;;;;;;19.83;16.13;;;11.50;99.90;;;;;;4888353;29;20052;-80
2023/04/28 07:38:19;;;;;;;24.88;16.38;;;11.50;99.90;;;;;;4858589;29;20041;-80
2023/04/28 07:40:45;;;;;;;24.60;16.02;;;11.60;99.90;;;;;;4885472;29;20048;-79
2023/04/28 07:43:12;;;;;;;25.92;16.65;;;11.60;99.90;;;;;;4894006;29;20044;-80
2023/04/28 07:45:38;;;;;;;20.63;14.48;;;11.60;99.90;;;;;;4894077;29;20036;-83
2023/04/28 07:48:05;;;;;;;21.02;15.77;;;11.70;99.90;;;;;;4879551;29;20048;-80
2023/04/28 07:50:31;;;;;;;20.80;15.60;;;11.80;99.90;;;;;;4888149;29;20049;-80
2023/04/28 07:52:57;;;;;;;26.85;16.70;;;11.90;99.90;;;;;;4894160;29;20041;-81
2023/04/28 07:55:24;;;;;;;21.73;15.80;;;12.10;99.90;;;;;;4894836;29;20036;-81
2023/04/28 07:57:50;;;;;;;19.58;14.45;;;12.30;99.90;;;;;;4898311;29;20045;-80
2023/04/28 08:00:17;;;;;;;17.70;13.80;;;12.40;99.90;;;;;;4895940;29;20043;-82
2023/04/28 08:02:43;;;;;;;15.80;12.88;;;12.50;99.90;;;;;;4895059;29;20036;-82
2023/04/28 08:05:10;;;;;;;16.65;12.50;;;12.60;99.90;;;;;;4897259;29;20043;-81
2023/04/28 08:07:36;;;;;;;14.68;12.15;;;12.80;99.90;;;;;;4895489;29;20482;-80
2023/04/28 08:10:03;;;;;;;19.08;11.75;;;12.80;99.90;;;;;;4892647;29;20033;-80
2023/04/28 08:12:30;;;;;;;18.35;11.45;;;12.90;99.90;;;;;;4893953;29;20041;-82
2023/04/28 08:14:56;;;;;;;11.40;9.70;;;12.80;99.90;;;;;;4870773;29;20040;-84
2023/04/28 08:17:23;;;;;;;15.80;10.90;;;12.80;99.90;;;;;;4877474;29;20059;-82
2023/04/28 08:19:49;;;;;;;12.93;9.73;;;12.90;99.90;;;;;;4892955;29;20045;-83
2023/04/28 08:22:15;;;;;;;12.23;9.98;;;12.90;99.90;;;;;;4872598;29;20052;-83
2023/04/28 08:24:41;;;;;;;10.45;8.68;;;13.10;99.90;;;;;;4893207;29;20369;-83
2023/04/28 08:27:08;;;;;;;11.98;8.18;;;13.20;99.90;;;;;;4878232;29;20055;-83
2023/04/28 08:29:34;;;;;;;10.85;8.20;;;13.20;99.90;;;;;;4876209;29;20045;-83
2023/04/28 08:32:01;;;;;;;10.98;8.70;;;13.30;99.90;;;;;;4878612;29;20054;-83
2023/04/28 08:34:27;;;;;;;9.88;7.22;;;13.40;93.90;;;;;;4893456;29;20394;-80
2023/04/28 08:36:53;;;;;;;10.90;8.70;;;13.40;82.80;;;;;;4880128;29;20044;-82
2023/04/28 08:39:21;;;;;;;11.95;8.40;;;13.40;90.90;;;;;;4883076;29;20032;-84
2023/04/28 08:41:48;;;;;;;9.52;7.45;;;13.40;77.70;;;;;;4881660;29;20525;-80
2023/04/28 08:44:14;;;;;;;9.77;7.45;;;13.40;56.00;;;;;;4892300;29;20055;-82
2023/04/28 08:46:42;;;;;;;9.73;7.32;;;13.50;63.90;;;;;;4883814;29;20051;-84
2023/04/28 08:49:14;;;;;;;10.30;7.95;;;13.50;49.40;;;;;;4888857;29;20074;-81
2023/04/28 08:51:46;;;;;;;13.73;8.90;;;13.90;90.10;;;;;;4894998;29;20052;-83
2023/04/28 08:54:15;;;;;;;8.75;6.80;;;14.30;11.10;;;;;;4887753;29;20049;-82
2023/04/28 08:56:44;;;;;;;7.40;5.38;;;14.50;1.00;;;;;;4884200;29;20052;-83
2023/04/28 08:59:12;;;;;;;7.40;5.55;;;14.70;1.00;;;;;;4897673;29;20466;-82
2023/04/28 09:01:38;;;;;;;7.82;5.35;;;15.00;1.00;;;;;;4892822;29;20055;-81
2023/04/28 09:04:04;;;;;;;6.18;4.85;;;14.70;1.00;;;;;;4877505;29;20390;-82
2023/04/28 09:06:35;;;;;;;6.70;5.30;;;14.50;1.00;;;;;;4882105;29;20045;-82
2023/04/28 09:09:20;;;;;;;9.13;5.60;;;14.30;1.00;;;;;;4881600;29;20048;-81
2023/04/28 09:11:54;;;;;;;9.45;5.70;;;14.10;1.00;;;;;;4881913;29;20386;-82
2023/04/28 09:14:22;;;;;;;9.18;6.35;;;14.00;1.00;;;;;;4895769;29;20110;-82
2023/04/28 09:16:49;;;;;;;7.53;5.50;;;13.90;1.00;;;;;;4881831;29;20063;-82
2023/04/28 09:19:16;;;;;;;7.40;6.10;;;13.80;1.00;;;;;;4881693;29;20044;-82
2023/04/28 09:21:47;;;;;;;7.28;5.43;;;13.80;1.00;;;;;;4886280;29;20052;-82
2023/04/28 09:24:33;;;;;;;8.63;6.07;;;13.70;1.00;;;;;;4882557;29;20047;-80
2023/04/28 09:27:03;;;;;;;7.25;6.10;;;13.80;1.00;;;;;;4895032;29;20048;-82
2023/04/28 09:29:30;;;;;;;8.30;6.18;;;13.80;1.00;;;;;;4881488;29;20036;-82
2023/04/28 09:32:17;;;;;;;8.90;6.80;;;13.80;10.40;;;;;;4887194;29;20041;-82
2023/04/28 09:34:55;;;;;;;7.65;5.72;;;13.80;1.00;;;;;;4893734;29;20045;-82
2023/04/28 09:37:23;;;;;;;8.00;6.57;;;13.80;12.70;;;;;;4897584;29;20047;-81
2023/04/28 09:39:51;;;;;;;7.55;6.03;;;13.90;6.20;;;;;;4887678;29;20040;-80
2023/04/28 09:42:42;;;;;;;6.53;5.65;;;13.90;1.00;;;;;;4881937;29;20470;-81
2023/04/28 09:45:13;;;;;;;10.15;6.25;;;14.10;1.00;;;;;;4860094;29;20064;-82
2023/04/28 09:47:45;;;;;;;11.88;5.82;;;14.20;1.00;;;;;;4863514;29;20053;-81
2023/04/28 09:50:14;;;;;;;7.43;6.45;;;14.30;1.00;;;;;;4877510;29;20398;-81
2023/04/28 09:52:41;;;;;;;7.38;6.22;;;14.30;1.00;;;;;;4878395;29;20045;-82
2023/04/28 09:55:08;;;;;;;9.77;6.85;;;14.20;1.00;;;;;;4864006;29;20053;-82
2023/04/28 09:57:35;;;;;;;13.35;7.80;;;14.10;1.00;;;;;;4878747;29;20049;-82
2023/04/28 10:00:05;;;;;;;11.18;6.75;;;14.10;1.00;;;;;;4860994;29;20490;-83
2023/04/28 10:02:34;;;;;;;7.40;6.55;;;14.10;1.00;;;;;;4879199;29;20044;-83
2023/04/28 10:05:00;;;;;;;7.55;6.43;;;14.10;1.00;;;;;;4897840;29;20422;-80
2023/04/28 10:07:29;;;;;;;9.13;7.22;;;14.10;1.00;;;;;;4878462;29;20060;-81
2023/04/28 10:09:57;;;;;;;8.75;7.50;;;14.00;1.00;;;;;;4877840;29;20045;-81
2023/04/28 10:12:23;;;;;;;10.82;8.10;;;14.00;3.70;;;;;;4897129;29;20041;-81
2023/04/28 10:14:53;;;;;;;8.13;7.07;;;14.00;1.90;;;;;;4898144;29;20039;-82
2023/04/28 10:17:20;;;;;;;9.15;8.02;;;14.00;1.00;;;;;;4877981;29;20053;-81
2023/04/28 10:19:51;;;;;;;8.65;7.30;;;14.00;1.00;;;;;;4893564;29;20036;-81
2023/04/28 10:22:31;;;;;;;10.48;7.22;;;13.90;1.00;;;;;;4896433;29;20048;-81
2023/04/28 10:25:11;;;;;;;10.07;8.18;;;14.00;17.80;;;;;;4865788;29;20041;-81
2023/04/28 10:27:42;;;;;;;11.40;7.88;;;14.00;39.80;;;;;;4887237;29;20427;-81
2023/04/28 10:30:10;;;;;;;9.60;8.27;;;13.90;47.20;;;;;;4877454;29;20052;-80
2023/04/28 10:32:37;;;;;;;10.02;8.05;;;13.90;64.00;;;;;;4897405;29;20390;-83
2023/04/28 10:35:28;;;;;;;12.40;8.23;;;14.00;93.10;;;;;;4888163;29;20036;-83
2023/04/28 10:38:11;;;;;;;11.23;8.63;;;14.00;95.20;;;;;;4895218;29;20037;-83
2023/04/28 10:40:37;;;;;;;10.23;8.43;;;14.00;84.90;;;;;;4875028;29;20044;-75
2023/04/28 10:43:05;;;;;;;9.48;7.97;;;14.00;96.90;;;;;;4895772;29;20490;-75
2023/04/28 10:45:55;;;;;;;9.93;7.93;;;14.10;99.90;;;;;;4896503;29;20041;-75
2023/04/28 10:48:42;;;;;;;10.15;9.05;;;14.20;99.20;;;;;;4895135;29;20041;-75
2023/04/28 10:51:15;;;;;;;10.50;8.23;;;14.30;99.90;;;;;;4891494;29;20034;-76
2023/04/28 10:53:44;;;;;;;9.35;7.88;;;14.40;99.90;;;;;;4894427;29;20390;-75
2023/04/28 10:56:25;;;;;;;14.45;8.52;;;14.40;88.30;;;;;;4880418;29;20036;-74
2023/04/28 10:58:54;;;;;;;9.55;7.60;;;14.30;80.70;;;;;;4896731;29;20055;-75
2023/04/28 11:01:20;;;;;;;10.70;8.55;;;14.30;68.90;;;;;;4893581;29;20089;-74
2023/04/28 11:03:47;;;;;;;10.75;8.38;;;14.30;83.90;;;;;;4895096;29;20039;-74
2023/04/28 11:06:31;;;;;;;10.57;7.00;;;14.30;86.60;;;;;;4897216;29;20045;-74
2023/04/28 11:09:13;;;;;;;9.65;7.95;;;14.30;84.70;;;;;;4896358;29;20044;-75
2023/04/28 11:11:58;;;;;;;10.80;8.90;;;14.50;99.90;;;;;;4895602;29;20036;-75
2023/04/28 11:14:24;;;;;;;10.13;7.75;;;14.70;65.40;;;;;;4891633;29;20040;-75
2023/04/28 11:16:58;;;;;;;8.60;6.90;;;14.80;36.50;;;;;;4878975;29;20044;-74
2023/04/28 11:19:27;;;;;;;9.52;6.75;;;14.80;26.70;;;;;;4894836;29;20041;-75
2023/04/28 11:21:56;;;;;;;11.98;9.27;;;14.90;32.00;;;;;;4895470;29;20040;-75
2023/04/28 11:24:27;;;;;;;9.70;8.50;;;14.90;31.30;;;;;;4894167;29;20063;-74
2023/04/28 11:26:54;;;;;;;8.90;6.40;;;14.90;24.60;;;;;;4894890;29;20041;-74
2023/04/28 11:29:32;;;;;;;6.95;6.15;;;14.80;21.30;;;;;;4862512;29;20043;-76
2023/04/28 11:31:59;;;;;;;10.60;8.68;;;14.60;23.30;;;;;;4892086;29;20040;-75
2023/04/28 11:34:25;;;;;;;9.95;8.48;;;14.50;52.60;;;;;;4890960;29;20052;-75
2023/04/28 11:36:51;;;;;;;10.32;7.75;;;14.40;97.00;;;;;;4879018;29;20037;-77
2023/04/28 11:39:28;;;;;;;9.90;8.07;;;14.40;99.90;;;;;;4876206;29;20053;-75
2023/04/28 11:41:56;;;;;;;11.75;9.63;;;14.30;99.90;;;;;;4891194;29;20060;-74
2023/04/28 11:44:27;;;;;;;12.07;9.05;;;14.30;99.90;;;;;;4892204;29;20036;-74
2023/04/28 11:47:01;;;;;;;11.88;9.90;;;14.20;99.90;;;;;;4891760;29;20048;-76
2023/04/28 11:49:29;;;;;;;12.25;10.50;;;14.20;99.90;;;;;;4877079;29;20478;-75
2023/04/28 11:51:58;;;;;;;14.18;12.02;;;14.20;99.90;;;;;;4891567;29;20028;-75
2023/04/28 11:54:26;;;;;;;18.48;12.75;;;14.30;99.90;;;;;;4894330;29;20044;-74
2023/04/28 11:56:54;;;;;;;15.38;12.15;;;14.30;99.90;;;;;;4892662;29;20049;-76
2023/04/28 11:59:24;;;;;;;13.75;11.02;;;14.30;99.90;;;;;;4892344;29;20044;-74
2023/04/28 12:01:53;;;;;;;17.20;12.23;;;14.30;99.90;;;;;;4893424;29;20044;-76
2023/04/28 12:04:36;;;;;;;16.30;12.60;;;14.30;99.90;;;;;;4894071;29;20359;-75
2023/04/28 12:07:11;;;;;;;15.95;13.25;;;14.30;99.90;;;;;;4890079;29;20045;-75
2023/04/28 12:10:08;;;;;;;15.13;12.45;;;14.30;99.90;;;;;;4892284;29;20040;-75
2023/04/28 12:12:34;;;;;;;15.05;11.57;;;14.40;99.90;;;;;;4899794;29;20393;-75
2023/04/28 12:15:05;;;;;;;20.70;17.15;;;14.40;99.90;;;;;;4899296;29;20032;-75
2023/04/28 12:17:33;;;;;;;21.92;17.77;;;14.40;99.90;;;;;;4883663;29;20496;-77
2023/04/28 12:20:01;;;;;;;20.98;15.18;;;14.50;99.90;;;;;;4899725;29;20387;-77
2023/04/28 12:22:28;;;;;;;18.35;14.32;;;14.50;99.90;;;;;;4900999;29;20378;-78
2023/04/28 12:25:07;;;;;;;18.10;14.85;;;14.40;99.90;;;;;;4898482;29;20053;-77
2023/04/28 12:27:37;;;;;;;23.63;15.48;;;14.40;99.90;;;;;;4870427;29;20099;-77
2023/04/28 12:30:24;;;;;;;22.03;16.10;;;14.30;99.90;;;;;;4897457;29;20032;-77
2023/04/28 12:32:57;;;;;;;20.00;15.27;;;14.30;99.90;;;;;;4867098;29;20055;-76
2023/04/28 12:35:25;;;;;;;22.77;16.40;;;14.40;99.90;;;;;;4900686;29;20055;-77
2023/04/28 12:37:52;;;;;;;27.02;16.05;;;14.40;99.90;;;;;;4883056;29;20049;-78
2023/04/28 12:40:18;;;;;;;23.33;17.35;;;14.40;99.90;;;;;;4868844;29;20208;-77
2023/04/28 12:42:45;;;;;;;23.50;19.13;;;14.50;99.90;;;;;;4891625;29;20045;-78
2023/04/28 12:45:11;;;;;;;25.83;18.52;;;14.50;99.90;;;;;;4878812;29;20045;-77
2023/04/28 12:47:38;;;;;;;27.15;20.80;;;14.70;99.90;;;;;;4900546;29;20047;-78